Time;durP1;ratioP1;P1;durP2;ratioP2;P2;SDS_P1;SDS_P2;PMS_P1;PMS_P2;Temp;Humidity;BMP_temperature;BMP_pressure;BME280_temperature;BME280_humidity;BME280_pressure;Samples;Min_cycle;Max_cycle;Signal;HPM_P1;HPM_P2
2023/07/14 00:01:29;;;;;;;;;;;23.70;57.50;;;;;;5052720;28;20011;-54
2023/07/14 00:03:55;;;;;;;;;;;23.80;57.80;;;;;;5051292;28;19912;-53
2023/07/14 00:06:21;;;;;;;;;;;23.70;57.60;;;;;;5033864;28;19924;-53
2023/07/14 00:08:46;;;;;;;;;;;23.80;57.70;;;;;;5050239;28;19958;-53
2023/07/14 00:11:17;;;;;;;;;;;23.70;57.70;;;;;;5049014;28;20203;-54
2023/07/14 00:13:42;;;;;;;;;;;23.70;57.70;;;;;;5050629;28;19917;-53
2023/07/14 00:16:21;;;;;;;;;;;23.70;57.60;;;;;;5049507;28;19913;-53
2023/07/14 00:18:47;;;;;;;;;;;23.80;57.60;;;;;;5050528;28;19924;-53
2023/07/14 00:21:16;;;;;;;;;;;23.80;57.50;;;;;;5050676;28;19934;-53
2023/07/14 00:23:42;;;;;;;;;;;23.80;57.40;;;;;;5049384;28;19916;-53
2023/07/14 00:26:13;;;;;;;;;;;23.80;57.50;;;;;;5049197;28;19974;-53
2023/07/14 00:28:39;;;;;;;;;;;23.80;57.50;;;;;;5053006;28;20429;-53
2023/07/14 00:31:04;;;;;;;;;;;23.70;57.50;;;;;;5051126;28;19917;-53
2023/07/14 00:33:30;;;;;;;;;;;23.70;57.50;;;;;;5051876;28;19959;-53
2023/07/14 00:35:55;;;;;;;;;;;23.70;57.50;;;;;;5057422;28;20270;-53
2023/07/14 00:38:21;;;;;;;;;;;23.70;57.40;;;;;;5048935;28;20282;-53
2023/07/14 00:40:47;;;;;;;;;;;23.70;57.40;;;;;;5049161;28;20411;-53
2023/07/14 00:43:12;;;;;;;;;;;23.70;57.40;;;;;;5049434;28;19938;-53
2023/07/14 00:45:38;;;;;;;;;;;23.70;57.40;;;;;;5054745;28;19971;-53
2023/07/14 00:48:04;;;;;;;;;;;23.60;57.50;;;;;;5049344;28;19917;-54
2023/07/14 00:50:31;;;;;;;;;;;23.60;57.50;;;;;;5048476;28;20003;-53
2023/07/14 00:52:58;;;;;;;;;;;23.60;57.50;;;;;;5048738;28;19921;-53
2023/07/14 00:55:27;;;;;;;;;;;23.60;57.30;;;;;;5056213;28;19916;-53
2023/07/14 00:57:53;;;;;;;;;;;23.60;57.30;;;;;;5048158;28;19986;-54
2023/07/14 01:00:26;;;;;;;;;;;23.60;57.20;;;;;;5051026;28;19917;-53
2023/07/14 01:02:51;;;;;;;;;;;23.60;57.20;;;;;;5050593;28;19917;-53
2023/07/14 01:05:17;;;;;;;;;;;23.60;57.20;;;;;;5051431;28;19912;-53
2023/07/14 01:07:43;;;;;;;;;;;23.60;57.10;;;;;;5048159;28;20320;-53
2023/07/14 01:10:09;;;;;;;;;;;23.60;57.00;;;;;;5055478;28;20381;-53
2023/07/14 01:12:35;;;;;;;;;;;23.60;57.00;;;;;;5049675;28;19912;-53
2023/07/14 01:15:01;;;;;;;;;;;23.60;57.00;;;;;;5062528;28;19948;-53
2023/07/14 01:17:27;;;;;;;;;;;23.60;56.90;;;;;;5059639;28;20632;-53
2023/07/14 01:20:03;;;;;;;;;;;23.70;56.90;;;;;;5066869;28;19913;-54
2023/07/14 01:22:44;;;;;;;;;;;23.60;56.90;;;;;;5076895;28;20003;-54
2023/07/14 01:25:19;;;;;;;;;;;23.60;56.70;;;;;;5052833;28;19913;-54
2023/07/14 01:27:46;;;;;;;;;;;23.70;56.80;;;;;;5052378;28;19952;-53
2023/07/14 01:30:11;;;;;;;;;;;23.60;56.70;;;;;;5053175;28;19927;-53
2023/07/14 01:32:38;;;;;;;;;;;23.60;56.60;;;;;;5050282;28;19908;-53
2023/07/14 01:35:05;;;;;;;;;;;23.60;56.60;;;;;;5051534;28;19982;-54
2023/07/14 01:37:31;;;;;;;;;;;23.60;56.60;;;;;;5067946;28;20130;-53
2023/07/14 01:39:57;;;;;;;;;;;23.60;56.50;;;;;;5071142;28;19999;-53
2023/07/14 01:42:24;;;;;;;;;;;23.60;56.60;;;;;;5058427;28;20402;-53
2023/07/14 01:44:49;;;;;;;;;;;23.60;56.50;;;;;;5072222;28;19992;-54
2023/07/14 01:47:14;;;;;;;;;;;23.50;56.40;;;;;;5061813;28;20003;-53
2023/07/14 01:49:46;;;;;;;;;;;23.60;56.40;;;;;;5052194;28;19916;-54
2023/07/14 01:52:16;;;;;;;;;;;23.60;56.40;;;;;;5051529;28;19917;-53
2023/07/14 01:54:43;;;;;;;;;;;23.50;56.30;;;;;;5052676;28;19908;-53
2023/07/14 01:57:12;;;;;;;;;;;23.50;56.30;;;;;;5057866;28;19939;-54
2023/07/14 01:59:39;;;;;;;;;;;23.50;56.30;;;;;;5061937;28;19914;-54
2023/07/14 02:02:06;;;;;;;;;;;23.50;56.20;;;;;;5070844;28;19954;-53
2023/07/14 02:04:32;;;;;;;;;;;23.50;56.30;;;;;;5059119;28;19963;-54
2023/07/14 02:06:58;;;;;;;;;;;23.50;56.30;;;;;;5070461;28;19916;-53
2023/07/14 02:09:23;;;;;;;;;;;23.50;56.30;;;;;;5069138;28;20288;-53
2023/07/14 02:11:51;;;;;;;;;;;23.50;56.40;;;;;;5067815;28;19975;-53
2023/07/14 02:14:17;;;;;;;;;;;23.40;56.40;;;;;;5050997;28;20369;-53
2023/07/14 02:16:43;;;;;;;;;;;23.50;56.40;;;;;;5058504;28;19919;-54
2023/07/14 02:19:10;;;;;;;;;;;23.50;56.40;;;;;;5068893;28;19932;-54
2023/07/14 02:21:37;;;;;;;;;;;23.50;56.40;;;;;;5062503;28;19913;-54
2023/07/14 02:24:04;;;;;;;;;;;23.40;56.40;;;;;;5051427;28;19928;-54
2023/07/14 02:26:31;;;;;;;;;;;23.50;56.40;;;;;;5049838;28;20389;-54
2023/07/14 02:28:57;;;;;;;;;;;23.50;56.40;;;;;;5066197;28;19908;-53
2023/07/14 02:31:27;;;;;;;;;;;23.50;56.40;;;;;;5070913;28;19909;-54
2023/07/14 02:33:53;;;;;;;;;;;23.50;56.40;;;;;;5057793;28;19912;-53
2023/07/14 02:36:27;;;;;;;;;;;23.40;56.30;;;;;;5052354;28;20026;-53
2023/07/14 02:38:55;;;;;;;;;;;23.40;56.40;;;;;;5053886;28;20320;-54
2023/07/14 02:41:22;;;;;;;;;;;23.50;56.40;;;;;;5051627;28;19908;-54
2023/07/14 02:43:49;;;;;;;;;;;23.40;56.40;;;;;;5053971;28;19912;-54
2023/07/14 02:46:26;;;;;;;;;;;23.40;56.40;;;;;;5056084;28;19982;-54
2023/07/14 02:48:52;;;;;;;;;;;23.40;56.50;;;;;;5065779;28;19964;-53
2023/07/14 02:51:17;;;;;;;;;;;23.40;56.50;;;;;;5054192;28;20397;-53
2023/07/14 02:53:42;;;;;;;;;;;23.40;56.60;;;;;;5058331;28;19974;-53
2023/07/14 02:56:08;;;;;;;;;;;23.40;56.50;;;;;;5051444;28;19932;-54
2023/07/14 02:58:34;;;;;;;;;;;23.40;56.60;;;;;;5050801;28;20369;-53
2023/07/14 03:00:59;;;;;;;;;;;23.40;56.70;;;;;;5055773;28;20261;-53
2023/07/14 03:03:25;;;;;;;;;;;23.40;56.70;;;;;;5051260;28;19920;-53
2023/07/14 03:05:51;;;;;;;;;;;23.40;56.80;;;;;;5051731;28;19921;-53
2023/07/14 03:08:17;;;;;;;;;;;23.30;56.70;;;;;;5051769;28;19999;-53
2023/07/14 03:10:46;;;;;;;;;;;23.40;56.80;;;;;;5053100;28;20369;-53
2023/07/14 03:13:12;;;;;;;;;;;23.40;56.80;;;;;;5049852;28;19912;-53
2023/07/14 03:15:37;;;;;;;;;;;23.30;56.80;;;;;;5055945;28;19920;-53
2023/07/14 03:18:03;;;;;;;;;;;23.40;56.90;;;;;;5055547;28;20445;-53
2023/07/14 03:20:28;;;;;;;;;;;23.40;56.90;;;;;;5056814;28;20400;-53
2023/07/14 03:22:54;;;;;;;;;;;23.30;56.90;;;;;;5054104;28;19917;-54
2023/07/14 03:25:19;;;;;;;;;;;23.30;57.00;;;;;;5051455;28;20027;-53
2023/07/14 03:27:45;;;;;;;;;;;23.30;57.00;;;;;;5051459;28;19913;-54
2023/07/14 03:30:11;;;;;;;;;;;23.30;57.00;;;;;;5051067;28;19959;-53
2023/07/14 03:32:37;;;;;;;;;;;23.30;56.90;;;;;;5060532;28;19913;-53
2023/07/14 03:35:03;;;;;;;;;;;23.30;57.00;;;;;;5055106;28;20396;-53
2023/07/14 03:37:29;;;;;;;;;;;23.30;57.00;;;;;;5055262;28;20330;-54
2023/07/14 03:39:54;;;;;;;;;;;23.30;57.00;;;;;;5054773;28;19920;-53
2023/07/14 03:42:20;;;;;;;;;;;23.30;57.10;;;;;;5054119;28;20007;-53
2023/07/14 03:44:45;;;;;;;;;;;23.30;57.10;;;;;;5050173;28;19916;-53
2023/07/14 03:47:11;;;;;;;;;;;23.30;57.20;;;;;;5054991;28;19921;-53
2023/07/14 03:49:36;;;;;;;;;;;23.30;57.10;;;;;;5051474;28;20008;-53
2023/07/14 03:52:02;;;;;;;;;;;23.30;57.20;;;;;;5054008;28;19940;-53
2023/07/14 03:54:28;;;;;;;;;;;23.30;57.10;;;;;;5049043;28;20331;-53
2023/07/14 03:56:54;;;;;;;;;;;23.30;57.10;;;;;;5060476;28;19934;-54
2023/07/14 03:59:20;;;;;;;;;;;23.20;57.20;;;;;;5052628;28;19929;-53
2023/07/14 04:01:45;;;;;;;;;;;23.20;57.20;;;;;;5053733;28;19916;-53
2023/07/14 04:04:11;;;;;;;;;;;23.30;57.30;;;;;;5051892;28;20415;-54
2023/07/14 04:06:36;;;;;;;;;;;23.30;57.30;;;;;;5051649;28;19943;-54
2023/07/14 04:09:02;;;;;;;;;;;23.30;57.30;;;;;;5054478;28;20387;-54
2023/07/14 04:11:27;;;;;;;;;;;23.30;57.20;;;;;;5050767;28;20353;-53
2023/07/14 04:13:52;;;;;;;;;;;23.30;57.30;;;;;;5050537;28;20023;-53
2023/07/14 04:16:18;;;;;;;;;;;23.30;57.30;;;;;;5051573;28;20775;-53
2023/07/14 04:18:44;;;;;;;;;;;23.30;57.30;;;;;;5057586;28;22644;-53
2023/07/14 04:21:10;;;;;;;;;;;23.30;57.40;;;;;;5055784;28;19969;-53
2023/07/14 04:23:36;;;;;;;;;;;23.30;57.30;;;;;;5053114;28;20389;-53
2023/07/14 04:26:01;;;;;;;;;;;23.20;57.40;;;;;;5052802;28;19920;-53
2023/07/14 04:28:28;;;;;;;;;;;23.20;57.60;;;;;;5050758;28;19913;-53
2023/07/14 04:30:54;;;;;;;;;;;23.20;57.60;;;;;;5056641;28;20377;-53
2023/07/14 04:33:21;;;;;;;;;;;23.20;57.50;;;;;;5055383;28;19939;-53
2023/07/14 04:35:47;;;;;;;;;;;23.20;57.50;;;;;;5050049;28;19959;-53
2023/07/14 04:38:13;;;;;;;;;;;23.20;57.70;;;;;;5054388;28;19964;-54
2023/07/14 04:40:39;;;;;;;;;;;23.20;57.60;;;;;;5055591;28;20359;-53
2023/07/14 04:43:05;;;;;;;;;;;23.20;57.60;;;;;;5052025;28;19948;-53
2023/07/14 04:45:30;;;;;;;;;;;23.20;57.60;;;;;;5054438;28;20103;-53
2023/07/14 04:47:56;;;;;;;;;;;23.20;57.50;;;;;;5050821;28;20012;-54
2023/07/14 04:50:22;;;;;;;;;;;23.20;57.60;;;;;;5053758;28;19916;-53
2023/07/14 04:52:47;;;;;;;;;;;23.20;57.70;;;;;;5046304;28;19917;-53
2023/07/14 04:55:13;;;;;;;;;;;23.20;57.70;;;;;;5050363;28;19931;-54
2023/07/14 04:57:38;;;;;;;;;;;23.30;57.60;;;;;;5052473;28;19932;-53
2023/07/14 05:00:05;;;;;;;;;;;23.30;57.70;;;;;;5053088;28;19917;-53
2023/07/14 05:02:30;;;;;;;;;;;23.30;57.70;;;;;;5051415;28;19916;-54
2023/07/14 05:05:09;;;;;;;;;;;23.30;57.70;;;;;;5048286;28;20026;-54
2023/07/14 05:07:34;;;;;;;;;;;23.30;57.40;;;;;;5052089;28;19920;-54
2023/07/14 05:10:00;;;;;;;;;;;23.30;57.60;;;;;;5049742;28;19917;-54
2023/07/14 05:12:25;;;;;;;;;;;23.40;57.80;;;;;;5050178;28;19924;-53
2023/07/14 05:14:51;;;;;;;;;;;23.30;57.60;;;;;;5050093;28;19917;-54
2023/07/14 05:17:17;;;;;;;;;;;23.30;57.70;;;;;;5051865;28;19912;-54
2023/07/14 05:19:42;;;;;;;;;;;23.30;57.70;;;;;;5049126;28;19919;-54
2023/07/14 05:22:07;;;;;;;;;;;23.30;57.70;;;;;;5047940;28;20021;-53
2023/07/14 05:24:33;;;;;;;;;;;23.30;57.70;;;;;;5050618;28;19921;-54
2023/07/14 05:26:59;;;;;;;;;;;23.30;57.70;;;;;;5046812;28;19928;-53
2023/07/14 05:29:25;;;;;;;;;;;23.20;57.70;;;;;;5048995;28;20309;-54
2023/07/14 05:31:50;;;;;;;;;;;23.30;57.80;;;;;;5048474;28;19916;-53
2023/07/14 05:34:16;;;;;;;;;;;23.30;57.70;;;;;;5046876;28;19916;-53
2023/07/14 05:36:41;;;;;;;;;;;23.30;57.70;;;;;;5048124;28;20581;-54
2023/07/14 05:39:07;;;;;;;;;;;23.30;57.70;;;;;;5043923;28;19927;-54
2023/07/14 05:41:32;;;;;;;;;;;23.30;57.70;;;;;;5053549;28;20381;-54
2023/07/14 05:43:57;;;;;;;;;;;23.30;57.80;;;;;;5051638;28;19926;-53
2023/07/14 05:46:23;;;;;;;;;;;23.30;57.80;;;;;;5063304;28;19940;-54
2023/07/14 05:48:48;;;;;;;;;;;23.30;58.10;;;;;;5052880;28;19917;-54
2023/07/14 05:51:14;;;;;;;;;;;23.30;58.10;;;;;;5051338;28;19958;-53
2023/07/14 05:53:40;;;;;;;;;;;23.30;58.10;;;;;;5048591;28;19919;-54
2023/07/14 05:56:05;;;;;;;;;;;23.20;58.20;;;;;;5050199;28;19917;-54
2023/07/14 05:58:31;;;;;;;;;;;23.30;58.30;;;;;;5053449;28;19921;-54
2023/07/14 06:00:56;;;;;;;;;;;23.30;58.20;;;;;;5048886;28;20480;-54
2023/07/14 06:03:22;;;;;;;;;;;23.30;58.30;;;;;;5050309;28;20289;-54
2023/07/14 06:05:48;;;;;;;;;;;23.20;58.10;;;;;;5050017;28;19921;-54
2023/07/14 06:08:13;;;;;;;;;;;23.30;58.40;;;;;;5048145;28;19964;-54
2023/07/14 06:10:38;;;;;;;;;;;23.30;58.40;;;;;;5052382;28;19921;-54
2023/07/14 06:13:04;;;;;;;;;;;23.30;58.40;;;;;;5049188;28;19921;-54
2023/07/14 06:15:30;;;;;;;;;;;23.30;58.30;;;;;;5051459;28;20609;-54
2023/07/14 06:17:55;;;;;;;;;;;23.30;58.40;;;;;;5047538;28;20424;-54
2023/07/14 06:20:21;;;;;;;;;;;23.30;58.40;;;;;;5053297;28;20020;-53
2023/07/14 06:22:48;;;;;;;;;;;23.30;58.40;;;;;;5051875;28;20011;-54
2023/07/14 06:25:13;;;;;;;;;;;23.30;58.50;;;;;;5051553;28;20028;-54
2023/07/14 06:27:39;;;;;;;;;;;23.30;58.60;;;;;;5058691;28;20412;-54
2023/07/14 06:30:05;;;;;;;;;;;23.30;58.70;;;;;;5051130;28;20488;-54
2023/07/14 06:32:30;;;;;;;;;;;23.30;58.60;;;;;;5051544;28;19923;-54
2023/07/14 06:34:56;;;;;;;;;;;23.30;58.60;;;;;;5046889;28;19919;-54
2023/07/14 06:37:24;;;;;;;;;;;23.30;58.70;;;;;;5052644;28;19960;-54
2023/07/14 06:39:49;;;;;;;;;;;23.30;58.70;;;;;;5051664;28;19956;-54
2023/07/14 06:42:15;;;;;;;;;;;23.30;58.80;;;;;;5047442;28;19979;-54
2023/07/14 06:44:40;;;;;;;;;;;23.30;58.80;;;;;;5046598;28;20001;-54
2023/07/14 06:47:06;;;;;;;;;;;23.30;58.80;;;;;;5048503;28;19941;-53
2023/07/14 06:49:31;;;;;;;;;;;23.30;58.90;;;;;;5052284;28;20381;-53
2023/07/14 06:51:57;;;;;;;;;;;23.30;58.90;;;;;;5054181;28;19916;-54
2023/07/14 06:54:22;;;;;;;;;;;23.40;59.60;;;;;;5052585;28;20011;-53
2023/07/14 06:56:48;;;;;;;;;;;23.40;59.00;;;;;;5055498;28;20380;-55
2023/07/14 06:59:13;;;;;;;;;;;23.30;58.90;;;;;;5051295;28;20308;-54
2023/07/14 07:01:39;;;;;;;;;;;23.30;58.90;;;;;;5051452;28;20303;-54
2023/07/14 07:04:05;;;;;;;;;;;23.40;59.00;;;;;;5048559;28;19967;-55
2023/07/14 07:06:30;;;;;;;;;;;23.30;58.90;;;;;;5051665;28;20459;-54
2023/07/14 07:08:56;;;;;;;;;;;23.30;58.90;;;;;;5057870;28;19966;-55
2023/07/14 07:11:22;;;;;;;;;;;23.30;58.90;;;;;;5056254;28;19999;-54
2023/07/14 07:13:47;;;;;;;;;;;23.40;59.00;;;;;;5055858;28;20020;-54
2023/07/14 07:16:14;;;;;;;;;;;23.30;59.00;;;;;;5052214;28;19913;-54
2023/07/14 07:18:39;;;;;;;;;;;23.30;58.90;;;;;;5051842;28;19927;-54
2023/07/14 07:21:07;;;;;;;;;;;23.30;58.80;;;;;;5051427;28;19913;-54
2023/07/14 07:23:32;;;;;;;;;;;23.30;59.40;;;;;;5050191;28;19943;-53
2023/07/14 07:25:58;;;;;;;;;;;23.30;58.70;;;;;;5057892;28;19982;-53
2023/07/14 07:28:23;;;;;;;;;;;23.30;59.10;;;;;;5053661;28;19967;-53
2023/07/14 07:30:49;;;;;;;;;;;23.40;58.80;;;;;;5062753;28;19913;-54
2023/07/14 07:33:14;;;;;;;;;;;23.40;58.70;;;;;;5060779;28;19909;-54
2023/07/14 07:35:40;;;;;;;;;;;23.40;58.50;;;;;;5054016;28;20340;-53
2023/07/14 07:38:07;;;;;;;;;;;23.40;58.50;;;;;;5055487;28;19923;-53
2023/07/14 07:40:33;;;;;;;;;;;23.40;58.30;;;;;;5054339;28;19985;-53
2023/07/14 07:42:59;;;;;;;;;;;23.40;58.10;;;;;;5050662;28;20284;-54
2023/07/14 07:45:25;;;;;;;;;;;23.40;57.90;;;;;;5049353;28;19920;-54
2023/07/14 07:47:50;;;;;;;;;;;23.40;57.90;;;;;;5055744;28;19920;-56
2023/07/14 07:50:15;;;;;;;;;;;23.40;58.00;;;;;;5053767;28;19909;-54
2023/07/14 07:52:41;;;;;;;;;;;23.40;58.10;;;;;;5051803;28;19967;-54
2023/07/14 07:55:06;;;;;;;;;;;23.50;58.00;;;;;;5054070;28;19938;-53
2023/07/14 07:57:32;;;;;;;;;;;23.50;57.90;;;;;;5056122;28;20396;-55
2023/07/14 07:59:57;;;;;;;;;;;23.50;57.90;;;;;;5058602;28;19918;-54
2023/07/14 08:02:23;;;;;;;;;;;23.50;57.90;;;;;;5053443;28;19912;-54
2023/07/14 08:04:52;;;;;;;;;;;23.50;57.90;;;;;;5055511;28;19916;-55
2023/07/14 08:07:17;;;;;;;;;;;23.50;57.90;;;;;;5051544;28;19970;-54
2023/07/14 08:09:43;;;;;;;;;;;23.50;57.70;;;;;;5057373;28;19942;-54
2023/07/14 08:12:09;;;;;;;;;;;23.50;57.70;;;;;;5054913;28;19947;-54
2023/07/14 08:14:36;;;;;;;;;;;23.50;57.60;;;;;;5052742;28;19912;-55
2023/07/14 08:17:01;;;;;;;;;;;23.50;57.30;;;;;;5066088;28;19913;-54
2023/07/14 08:19:26;;;;;;;;;;;23.50;57.30;;;;;;5050169;28;19929;-54
2023/07/14 08:21:52;;;;;;;;;;;23.50;57.10;;;;;;5046429;28;19913;-54
2023/07/14 08:24:18;;;;;;;;;;;23.50;57.10;;;;;;5051911;28;19966;-54
2023/07/14 08:26:43;;;;;;;;;;;23.50;57.10;;;;;;5054496;28;19920;-54
2023/07/14 08:29:09;;;;;;;;;;;23.50;57.00;;;;;;5066016;28;19955;-54
2023/07/14 08:31:34;;;;;;;;;;;23.50;57.00;;;;;;5065978;28;19916;-54
2023/07/14 08:33:59;;;;;;;;;;;23.50;57.10;;;;;;5057214;28;20003;-54
2023/07/14 08:36:25;;;;;;;;;;;23.60;57.10;;;;;;5053060;28;19917;-53
2023/07/14 08:38:54;;;;;;;;;;;23.50;57.00;;;;;;5053299;28;19972;-54
2023/07/14 08:41:33;;;;;;;;;;;23.50;56.80;;;;;;5057053;28;20829;-54
2023/07/14 08:44:04;;;;;;;;;;;23.50;56.80;;;;;;5067902;28;19915;-54
2023/07/14 08:46:38;;;;;;;;;;;23.50;56.60;;;;;;5053921;28;19921;-54
2023/07/14 08:49:09;;;;;;;;;;;23.50;56.50;;;;;;5064220;28;19928;-54
2023/07/14 08:51:36;;;;;;;;;;;23.50;56.40;;;;;;5065690;28;19967;-54
2023/07/14 08:54:03;;;;;;;;;;;23.50;56.10;;;;;;5066339;28;20501;-54
2023/07/14 08:56:30;;;;;;;;;;;23.50;56.10;;;;;;5062277;28;19924;-54
2023/07/14 08:58:55;;;;;;;;;;;23.50;55.80;;;;;;5077132;28;19928;-54
2023/07/14 09:01:23;;;;;;;;;;;23.60;56.00;;;;;;5066334;28;19916;-54
2023/07/14 09:03:50;;;;;;;;;;;23.60;55.90;;;;;;5067023;28;19917;-54
2023/07/14 09:06:15;;;;;;;;;;;23.60;55.60;;;;;;5061536;28;19913;-54
2023/07/14 09:08:41;;;;;;;;;;;23.60;55.70;;;;;;5051634;28;20352;-54
2023/07/14 09:11:42;;;;;;;;;;;23.60;55.60;;;;;;5048769;28;20123;-54
2023/07/14 09:14:13;;;;;;;;;;;23.60;55.60;;;;;;4980194;28;19996;-55
2023/07/14 09:16:42;;;;;;;;;;;23.60;55.40;;;;;;5038866;28;20015;-54
2023/07/14 09:19:21;;;;;;;;;;;23.60;55.20;;;;;;5050150;28;20001;-54
2023/07/14 09:21:58;;;;;;;;;;;23.60;54.90;;;;;;5046123;28;20373;-54
2023/07/14 09:24:27;;;;;;;;;;;23.60;54.80;;;;;;5052328;28;19995;-53
2023/07/14 09:26:54;;;;;;;;;;;23.70;54.80;;;;;;5047560;28;19970;-54
2023/07/14 09:29:46;;;;;;;;;;;23.70;55.00;;;;;;5044376;28;19913;-55
2023/07/14 09:32:14;;;;;;;;;;;23.70;54.90;;;;;;5044780;28;20109;-53
2023/07/14 09:34:43;;;;;;;;;;;23.70;54.80;;;;;;5045724;28;20253;-54
2023/07/14 09:37:44;;;;;;;;;;;23.70;54.80;;;;;;5045552;28;19917;-54
2023/07/14 09:40:17;;;;;;;;;;;23.70;54.60;;;;;;4984302;28;20354;-54
2023/07/14 09:42:43;;;;;;;;;;;23.70;54.50;;;;;;5038975;28;19913;-54
2023/07/14 09:45:19;;;;;;;;;;;23.70;54.50;;;;;;5044416;28;20353;-54
2023/07/14 09:47:44;;;;;;;;;;;23.70;54.50;;;;;;5045031;28;19924;-54
2023/07/14 09:50:17;;;;;;;;;;;23.70;54.30;;;;;;5058608;28;20002;-54
2023/07/14 09:52:55;;;;;;;;;;;23.70;54.20;;;;;;5048051;28;20311;-52
2023/07/14 09:55:21;;;;;;;;;;;23.70;54.00;;;;;;5053110;28;20434;-54
2023/07/14 09:57:47;;;;;;;;;;;23.70;54.00;;;;;;5053939;28;20012;-54
2023/07/14 10:00:21;;;;;;;;;;;23.70;54.10;;;;;;5067561;28;19920;-54
2023/07/14 10:02:52;;;;;;;;;;;23.70;54.00;;;;;;5051304;28;19943;-54
2023/07/14 10:05:17;;;;;;;;;;;23.70;54.00;;;;;;5050000;28;19921;-54
2023/07/14 10:07:43;;;;;;;;;;;23.70;54.00;;;;;;5054703;28;19923;-53
2023/07/14 10:10:09;;;;;;;;;;;23.70;54.10;;;;;;5049425;28;19921;-54
2023/07/14 10:12:40;;;;;;;;;;;23.70;54.00;;;;;;5045579;28;19929;-54
2023/07/14 10:15:21;;;;;;;;;;;23.80;54.00;;;;;;5056828;28;19948;-54
2023/07/14 10:17:47;;;;;;;;;;;23.80;54.00;;;;;;5061860;28;19913;-54
2023/07/14 10:20:16;;;;;;;;;;;23.80;54.10;;;;;;5048496;28;20399;-55
2023/07/14 10:22:41;;;;;;;;;;;23.80;54.00;;;;;;5038706;28;19924;-53
2023/07/14 10:25:13;;;;;;;;;;;23.80;54.40;;;;;;5053265;28;19913;-55
2023/07/14 10:27:39;;;;;;;;;;;23.80;53.90;;;;;;5035800;28;19917;-54
2023/07/14 10:30:08;;;;;;;;;;;23.80;53.70;;;;;;5056950;28;19942;-54
2023/07/14 10:32:43;;;;;;;;;;;23.80;53.70;;;;;;5051667;28;19927;-54
2023/07/14 10:35:08;;;;;;;;;;;23.80;53.70;;;;;;5057641;28;19921;-54
2023/07/14 10:37:38;;;;;;;;;;;23.80;53.70;;;;;;5054832;28;19939;-53
2023/07/14 10:40:11;;;;;;;;;;;23.80;53.80;;;;;;5048465;28;19916;-53
2023/07/14 10:42:37;;;;;;;;;;;23.80;53.70;;;;;;5052915;28;19920;-54
2023/07/14 10:45:02;;;;;;;;;;;23.90;53.90;;;;;;5052798;28;19967;-53
2023/07/14 10:47:30;;;;;;;;;;;23.90;53.90;;;;;;5057415;28;19956;-54
2023/07/14 10:50:25;;;;;;;;;;;23.90;54.00;;;;;;5054386;28;20468;-53
2023/07/14 10:52:57;;;;;;;;;;;23.90;54.00;;;;;;5036289;28;19912;-54
2023/07/14 10:55:25;;;;;;;;;;;24.00;54.10;;;;;;5066380;28;20357;-54
2023/07/14 10:57:56;;;;;;;;;;;24.00;53.90;;;;;;5050193;28;20027;-52
2023/07/14 11:00:28;;;;;;;;;;;24.00;53.90;;;;;;5083355;28;19909;-51
2023/07/14 11:02:57;;;;;;;;;;;24.00;54.00;;;;;;5060660;28;19917;-53
2023/07/14 11:05:23;;;;;;;;;;;24.10;54.10;;;;;;5053780;28;19908;-53
2023/07/14 11:07:48;;;;;;;;;;;24.10;54.20;;;;;;5055623;28;19916;-53
2023/07/14 11:10:34;;;;;;;;;;;24.20;54.00;;;;;;5063665;28;19916;-53
2023/07/14 11:13:14;;;;;;;;;;;24.20;54.00;;;;;;5056058;28;19956;-53
2023/07/14 11:15:41;;;;;;;;;;;24.20;54.20;;;;;;5057687;28;19913;-52
2023/07/14 11:18:18;;;;;;;;;;;24.10;54.10;;;;;;5053180;28;20023;-53
2023/07/14 11:21:04;;;;;;;;;;;24.10;54.20;;;;;;5055278;28;19921;-52
2023/07/14 11:23:36;;;;;;;;;;;24.00;54.40;;;;;;5051158;28;20292;-52
2023/07/14 11:26:05;;;;;;;;;;;24.00;54.70;;;;;;5063934;28;19924;-53
2023/07/14 11:28:36;;;;;;;;;;;23.90;54.50;;;;;;5052454;28;20274;-53
2023/07/14 11:31:03;;;;;;;;;;;23.90;54.70;;;;;;5054381;28;19920;-53
2023/07/14 11:33:44;;;;;;;;;;;24.00;54.70;;;;;;5056847;28;19919;-53
2023/07/14 11:36:21;;;;;;;;;;;24.00;54.70;;;;;;5059749;28;19913;-52
2023/07/14 11:38:55;;;;;;;;;;;24.00;54.60;;;;;;5064612;28;20475;-53
2023/07/14 11:41:21;;;;;;;;;;;24.00;54.60;;;;;;5054020;28;20524;-52
2023/07/14 11:43:46;;;;;;;;;;;24.00;54.50;;;;;;5052730;28;19959;-52
2023/07/14 11:46:14;;;;;;;;;;;24.00;54.80;;;;;;5053054;28;19932;-53
2023/07/14 11:48:59;;;;;;;;;;;24.10;54.90;;;;;;5054772;28;19923;-53
2023/07/14 11:51:43;;;;;;;;;;;24.10;54.90;;;;;;5060306;28;19921;-53
2023/07/14 11:54:08;;;;;;;;;;;24.10;54.80;;;;;;5054702;28;19917;-53
2023/07/14 11:56:38;;;;;;;;;;;24.10;54.90;;;;;;5053750;28;19970;-52
2023/07/14 11:59:24;;;;;;;;;;;24.10;54.90;;;;;;5062296;28;19925;-52
2023/07/14 12:01:50;;;;;;;;;;;24.10;54.90;;;;;;5048946;28;19916;-53
2023/07/14 12:04:24;;;;;;;;;;;24.10;54.80;;;;;;5048518;28;20897;-53
2023/07/14 12:07:03;;;;;;;;;;;24.10;54.80;;;;;;5051121;28;20404;-53
2023/07/14 12:09:28;;;;;;;;;;;24.10;54.80;;;;;;5048591;28;19921;-53
2023/07/14 12:11:55;;;;;;;;;;;24.10;54.90;;;;;;5051712;28;19921;-54
2023/07/14 12:14:36;;;;;;;;;;;24.10;54.90;;;;;;5051037;28;19912;-53
2023/07/14 12:17:02;;;;;;;;;;;24.10;55.10;;;;;;5047624;28;19920;-53
2023/07/14 12:19:32;;;;;;;;;;;24.10;54.90;;;;;;5044953;28;19976;-53
2023/07/14 12:22:02;;;;;;;;;;;24.10;54.80;;;;;;5056162;28;19984;-54
2023/07/14 12:24:29;;;;;;;;;;;24.10;54.70;;;;;;5050302;28;19920;-54
2023/07/14 12:27:03;;;;;;;;;;;24.10;54.80;;;;;;5052882;28;19965;-53
2023/07/14 12:29:28;;;;;;;;;;;24.10;54.80;;;;;;5047529;28;24415;-53
2023/07/14 12:31:54;;;;;;;;;;;24.10;54.80;;;;;;5052324;28;21917;-53
2023/07/14 12:34:24;;;;;;;;;;;24.10;54.50;;;;;;5048901;28;19963;-53
2023/07/14 12:36:49;;;;;;;;;;;24.10;54.30;;;;;;5051747;28;19916;-53
2023/07/14 12:39:16;;;;;;;;;;;24.20;54.30;;;;;;5049982;28;19986;-53
2023/07/14 12:41:49;;;;;;;;;;;24.20;54.20;;;;;;5049747;28;19913;-53
2023/07/14 12:44:24;;;;;;;;;;;24.20;54.50;;;;;;5049873;28;19931;-54
2023/07/14 12:46:50;;;;;;;;;;;24.20;54.40;;;;;;5052017;28;19978;-54
2023/07/14 12:49:24;;;;;;;;;;;24.20;54.40;;;;;;5053500;28;19912;-53
2023/07/14 12:51:50;;;;;;;;;;;24.10;54.30;;;;;;5052360;28;20300;-53
2023/07/14 12:54:42;;;;;;;;;;;24.10;54.10;;;;;;5050370;28;19921;-53
2023/07/14 12:57:08;;;;;;;;;;;24.10;54.00;;;;;;5049097;28;19913;-53
2023/07/14 12:59:34;;;;;;;;;;;24.10;53.90;;;;;;5049947;28;19970;-53
2023/07/14 13:02:00;;;;;;;;;;;24.10;53.90;;;;;;5055539;28;19917;-54
2023/07/14 13:04:26;;;;;;;;;;;24.10;53.90;;;;;;5052723;28;19919;-55
2023/07/14 13:06:58;;;;;;;;;;;24.10;53.70;;;;;;5053532;28;20308;-53
2023/07/14 13:09:24;;;;;;;;;;;24.10;53.80;;;;;;5046260;28;19920;-54
2023/07/14 13:11:50;;;;;;;;;;;24.10;53.80;;;;;;5051482;28;19920;-53
2023/07/14 13:14:18;;;;;;;;;;;24.00;53.80;;;;;;5051224;28;19967;-53
2023/07/14 13:16:43;;;;;;;;;;;24.10;53.80;;;;;;5048559;28;20015;-54
2023/07/14 13:19:28;;;;;;;;;;;24.10;53.80;;;;;;5049346;28;20226;-54
2023/07/14 13:21:53;;;;;;;;;;;24.10;53.70;;;;;;5049745;28;19982;-53
2023/07/14 13:24:21;;;;;;;;;;;24.10;53.70;;;;;;5047193;28;20322;-53
2023/07/14 13:26:57;;;;;;;;;;;24.10;53.80;;;;;;5050242;28;19959;-54
2023/07/14 13:29:24;;;;;;;;;;;24.10;53.70;;;;;;5057087;28;19924;-53
2023/07/14 13:32:00;;;;;;;;;;;24.20;53.80;;;;;;5056582;28;19931;-52
2023/07/14 13:34:30;;;;;;;;;;;24.20;53.70;;;;;;5058443;28;20391;-53
2023/07/14 13:36:56;;;;;;;;;;;24.20;53.70;;;;;;5060724;28;20266;-52
2023/07/14 13:39:22;;;;;;;;;;;24.20;53.80;;;;;;5050082;28;19924;-53
2023/07/14 13:41:48;;;;;;;;;;;24.20;53.70;;;;;;5053684;28;19923;-53
2023/07/14 13:44:32;;;;;;;;;;;24.20;53.70;;;;;;5050076;28;19917;-53
2023/07/14 13:47:04;;;;;;;;;;;24.30;53.90;;;;;;5050465;28;19921;-53
2023/07/14 13:49:29;;;;;;;;;;;24.30;53.70;;;;;;5048125;28;19917;-53
2023/07/14 13:51:55;;;;;;;;;;;24.30;53.50;;;;;;5044629;28;19943;-52
2023/07/14 13:54:21;;;;;;;;;;;24.30;52.50;;;;;;5049999;28;20005;-53
2023/07/14 13:56:47;;;;;;;;;;;24.30;52.40;;;;;;5053361;28;19913;-53
2023/07/14 13:59:14;;;;;;;;;;;24.30;52.20;;;;;;5053271;28;19939;-53
2023/07/14 14:01:39;;;;;;;;;;;24.30;52.00;;;;;;5047925;28;19924;-53
2023/07/14 14:04:05;;;;;;;;;;;24.30;52.10;;;;;;5047658;28;19913;-53
2023/07/14 14:06:30;;;;;;;;;;;24.30;52.30;;;;;;5048450;28;19917;-53
2023/07/14 14:08:56;;;;;;;;;;;24.30;52.20;;;;;;5054714;28;19913;-53
2023/07/14 14:11:21;;;;;;;;;;;24.30;52.20;;;;;;5054426;28;19912;-52
2023/07/14 14:13:47;;;;;;;;;;;24.40;52.10;;;;;;5047577;28;19999;-53
2023/07/14 14:16:13;;;;;;;;;;;24.40;51.90;;;;;;5051533;28;19920;-53
2023/07/14 14:18:38;;;;;;;;;;;24.50;51.80;;;;;;5052471;28;19924;-53
2023/07/14 14:21:04;;;;;;;;;;;24.60;51.90;;;;;;5052515;28;19916;-53